createdAt,value
2022-12-08T00:00:22.982Z,50.36
2022-12-08T00:05:44.494Z,50.31
2022-12-08T00:10:49.453Z,50.83
2022-12-08T00:15:52.993Z,50.70
2022-12-08T00:20:57.760Z,51.22
2022-12-08T00:26:05.957Z,50.74
2022-12-08T00:31:11.134Z,51.70
2022-12-08T00:36:15.313Z,51.35
2022-12-08T00:41:41.565Z,51.02
2022-12-08T00:46:45.363Z,51.84
2022-12-08T00:51:48.647Z,51.88
2022-12-08T00:56:51.873Z,51.83
2022-12-08T01:01:55.835Z,51.83
2022-12-08T01:07:00.484Z,53.22
2022-12-08T01:12:03.665Z,52.84
2022-12-08T01:17:06.781Z,53.19
2022-12-08T01:22:09.946Z,53.04
2022-12-08T01:27:16.366Z,52.13
2022-12-08T01:32:19.392Z,51.95
2022-12-08T01:37:22.469Z,51.77
2022-12-08T01:42:26.023Z,51.85
2022-12-08T01:47:42.107Z,51.26
2022-12-08T01:52:56.583Z,51.97
2022-12-08T01:58:11.051Z,52.46
2022-12-08T02:03:20.413Z,52.22
2022-12-08T02:08:23.943Z,52.43
2022-12-08T02:13:28.236Z,52.24
2022-12-08T02:19:30.345Z,51.67
2022-12-08T02:24:56.700Z,50.90
2022-12-08T02:30:06.527Z,50.96
2022-12-08T02:35:32.119Z,50.40
2022-12-08T02:40:54.172Z,50.50
2022-12-08T02:46:02.175Z,50.31
2022-12-08T02:51:07.096Z,49.52
2022-12-08T02:56:19.052Z,48.71
2022-12-08T03:01:50.240Z,49.81
2022-12-08T03:07:07.933Z,49.55
2022-12-08T03:12:18.959Z,49.43
2022-12-08T03:17:26.646Z,49.24
2022-12-08T03:22:30.123Z,49.76
2022-12-08T03:27:33.458Z,50.23
2022-12-08T03:32:48.063Z,50.20
2022-12-08T03:37:51.219Z,51.17
2022-12-08T03:42:54.210Z,52.30
2022-12-08T03:47:57.595Z,52.75
2022-12-08T03:53:00.581Z,53.22
2022-12-08T03:58:03.663Z,53.62
2022-12-08T04:03:07.064Z,51.49
2022-12-08T04:08:10.218Z,52.86
2022-12-08T04:13:13.367Z,53.68
2022-12-08T04:18:16.801Z,52.25
2022-12-08T04:23:20.050Z,52.97
2022-12-08T04:28:23.437Z,54.80
2022-12-08T04:33:26.921Z,54.02
2022-12-08T04:38:30.133Z,54.04
2022-12-08T04:43:33.445Z,53.97
2022-12-08T04:48:40.499Z,54.37
2022-12-08T04:53:46.659Z,54.16
2022-12-08T04:58:50.298Z,53.77
2022-12-08T05:03:53.437Z,55.99
2022-12-08T05:08:56.482Z,55.97
2022-12-08T05:13:59.583Z,56.18
2022-12-08T05:19:02.707Z,55.90
2022-12-08T05:24:06.153Z,55.41
2022-12-08T05:29:09.230Z,56.77
2022-12-08T05:34:12.508Z,57.44
2022-12-08T05:39:16.125Z,56.28
2022-12-08T05:44:19.189Z,56.58
2022-12-08T05:49:22.309Z,56.68
2022-12-08T05:54:25.626Z,55.40
2022-12-08T05:59:28.675Z,55.94
2022-12-08T06:04:31.732Z,54.90
2022-12-08T06:09:34.754Z,55.13
2022-12-08T06:14:41.104Z,53.62
2022-12-08T06:19:44.384Z,52.17
2022-12-08T06:24:47.420Z,52.75
2022-12-08T06:29:50.433Z,53.14
2022-12-08T06:34:53.752Z,51.63
2022-12-08T06:39:57.188Z,52.19
2022-12-08T06:45:00.939Z,52.54
2022-12-08T06:50:05.430Z,50.81
2022-12-08T06:55:10.145Z,51.38
2022-12-08T07:00:13.758Z,50.59
2022-12-08T07:05:17.018Z,51.28
2022-12-08T07:10:20.192Z,50.47
2022-12-08T07:15:23.345Z,49.14
2022-12-08T07:20:26.562Z,48.45
2022-12-08T07:25:29.697Z,48.30
2022-12-08T07:30:32.824Z,47.15
2022-12-08T07:35:36.294Z,46.46
2022-12-08T07:40:39.690Z,47.32
2022-12-08T07:45:43.065Z,46.66
2022-12-08T07:50:46.303Z,46.40
2022-12-08T07:55:49.428Z,45.97
2022-12-08T08:00:53.031Z,46.01
2022-12-08T08:05:56.155Z,46.56
2022-12-08T08:10:59.306Z,46.27
2022-12-08T08:16:07.357Z,45.18
2022-12-08T08:21:43.729Z,45.38
2022-12-08T08:26:37.511Z,45.83
2022-12-08T08:31:40.938Z,45.21
2022-12-08T08:36:45.768Z,45.88
2022-12-08T08:41:49.528Z,45.53
2022-12-08T08:46:52.883Z,43.49
2022-12-08T08:51:56.863Z,43.70
2022-12-08T08:57:00.938Z,43.83
2022-12-08T09:02:03.953Z,41.27
2022-12-08T09:07:07.814Z,40.57
2022-12-08T09:12:11.219Z,42.20
2022-12-08T09:17:15.161Z,41.49
2022-12-08T09:22:18.405Z,40.88
2022-12-08T09:27:22.294Z,41.50
2022-12-08T09:32:25.686Z,40.61
2022-12-08T09:37:31.419Z,39.28
2022-12-08T09:42:42.352Z,40.82
2022-12-08T09:47:48.280Z,40.50
2022-12-08T09:53:21.244Z,40.13
2022-12-08T09:58:32.627Z,41.21
2022-12-08T10:03:35.567Z,40.27
2022-12-08T10:08:48.878Z,39.13
2022-12-08T10:14:30.797Z,37.39
2022-12-08T10:19:36.053Z,39.47
2022-12-08T10:24:48.558Z,38.04
2022-12-08T10:29:52.855Z,36.91
2022-12-08T10:35:16.273Z,37.41
2022-12-08T10:40:19.551Z,37.70
2022-12-08T10:45:23.335Z,37.00
2022-12-08T10:50:32.491Z,34.96
2022-12-08T10:56:07.124Z,34.84
2022-12-08T11:01:29.245Z,35.47
2022-12-08T11:06:38.885Z,35.07
2022-12-08T11:11:53.607Z,34.36
2022-12-08T11:17:06.179Z,33.29
2022-12-08T11:22:31.163Z,33.46
2022-12-08T11:27:36.916Z,33.48
2022-12-08T11:32:45.141Z,33.82
2022-12-08T11:37:49.864Z,32.78
2022-12-08T11:43:25.627Z,28.35
2022-12-08T11:48:44.374Z,29.89
2022-12-08T11:54:18.188Z,33.25
2022-12-08T11:59:31.780Z,33.50
2022-12-08T12:04:41.168Z,33.62
2022-12-08T12:10:06.329Z,34.13
2022-12-08T12:15:15.831Z,35.49
2022-12-08T12:20:59.270Z,36.08
2022-12-08T12:26:06.824Z,37.11
2022-12-08T12:31:15.992Z,39.38
2022-12-08T12:36:19.333Z,39.26
2022-12-08T12:41:33.271Z,37.85
2022-12-08T12:46:36.582Z,39.90
2022-12-08T12:51:39.690Z,39.31
2022-12-08T12:56:50.823Z,40.85
2022-12-08T13:01:56.039Z,41.43
2022-12-08T13:07:00.016Z,42.65
2022-12-08T13:12:23.240Z,44.22
2022-12-08T13:17:32.685Z,44.16
2022-12-08T13:22:54.066Z,44.67
2022-12-08T13:27:57.163Z,44.25
2022-12-08T13:33:18.551Z,44.65
2022-12-08T13:38:26.715Z,45.13
2022-12-08T13:44:20.097Z,45.66
2022-12-08T13:55:25.917Z,45.46
2022-12-08T14:00:15.856Z,44.92
2022-12-08T14:05:40.585Z,45.67
2022-12-08T14:10:48.304Z,45.18
2022-12-08T14:15:51.492Z,44.57
2022-12-08T14:21:20.887Z,44.38
2022-12-08T14:26:24.642Z,44.50
2022-12-08T14:31:29.369Z,44.07
2022-12-08T14:36:33.928Z,44.55
2022-12-08T14:41:37.457Z,44.15
2022-12-08T14:47:05.810Z,44.62
2022-12-08T14:52:11.862Z,44.11
2022-12-08T14:57:15.836Z,43.91
2022-12-08T15:02:19.745Z,44.10
2022-12-08T15:07:32.162Z,44.13
2022-12-08T15:12:35.299Z,44.48
2022-12-08T15:17:50.480Z,44.00
2022-12-08T15:22:55.047Z,44.14
2022-12-08T15:27:58.341Z,44.77
2022-12-08T15:33:01.426Z,43.96
2022-12-08T15:38:05.623Z,43.82
2022-12-08T15:43:11.430Z,44.48
2022-12-08T15:48:23.143Z,44.84
2022-12-08T15:53:26.583Z,44.42
2022-12-08T15:58:52.922Z,44.70
2022-12-08T16:04:36.765Z,44.51
2022-12-08T16:09:19.827Z,44.63
2022-12-08T16:15:23.401Z,44.94
2022-12-08T16:19:46.365Z,44.39
2022-12-08T16:24:49.448Z,44.94
2022-12-08T16:29:52.547Z,44.63
2022-12-08T16:34:55.714Z,44.27
2022-12-08T16:40:00.515Z,43.27
2022-12-08T16:45:07.784Z,43.12
2022-12-08T16:50:21.212Z,42.61
2022-12-08T16:55:24.393Z,42.81
2022-12-08T17:00:29.818Z,43.40
2022-12-08T17:05:33.200Z,43.90
2022-12-08T17:10:39.656Z,43.63
2022-12-08T17:15:42.733Z,43.27
2022-12-08T17:20:45.911Z,43.30
2022-12-08T17:26:01.796Z,44.27
2022-12-08T17:31:17.942Z,44.75
2022-12-08T17:36:22.191Z,44.36
2022-12-08T17:41:25.346Z,44.77
2022-12-08T17:46:28.556Z,44.75
2022-12-08T17:51:31.726Z,45.17
2022-12-08T17:56:35.332Z,45.00
2022-12-08T18:01:38.845Z,45.29
2022-12-08T18:06:42.507Z,46.54
2022-12-08T18:11:46.571Z,46.25
2022-12-08T18:16:49.828Z,45.26
2022-12-08T18:21:53.095Z,45.38
2022-12-08T18:26:58.000Z,46.63
2022-12-08T18:32:01.238Z,46.27
2022-12-08T18:37:04.642Z,45.34
2022-12-08T18:42:23.170Z,46.67
2022-12-08T18:47:26.328Z,45.83
2022-12-08T18:52:32.224Z,46.31
2022-12-08T18:57:40.427Z,46.21
2022-12-08T19:02:43.835Z,44.70
2022-12-08T19:07:47.083Z,45.51
2022-12-08T19:12:51.553Z,45.27
2022-12-08T19:17:54.697Z,46.24
2022-12-08T19:22:57.828Z,45.29
2022-12-08T19:28:00.904Z,45.15
2022-12-08T19:33:04.015Z,45.16
2022-12-08T19:38:07.393Z,45.47
2022-12-08T19:43:35.626Z,45.01
2022-12-08T19:48:38.768Z,45.50
2022-12-08T19:53:47.398Z,45.44
2022-12-08T19:58:51.154Z,46.07
2022-12-08T20:03:54.189Z,46.13
2022-12-08T20:08:57.343Z,45.57
2022-12-08T20:14:00.449Z,45.52
2022-12-08T20:19:03.906Z,47.03
2022-12-08T20:24:07.705Z,46.97
2022-12-08T20:29:10.922Z,46.77
2022-12-08T20:34:15.922Z,47.20
2022-12-08T20:39:19.181Z,47.48
2022-12-08T20:44:22.445Z,48.04
2022-12-08T20:49:29.753Z,47.48
2022-12-08T20:54:37.638Z,48.17
2022-12-08T20:59:40.925Z,48.98
2022-12-08T21:04:44.258Z,50.58
2022-12-08T21:09:47.809Z,49.85
2022-12-08T21:14:51.151Z,50.88
2022-12-08T21:19:54.268Z,51.10
2022-12-08T21:24:57.324Z,51.77
2022-12-08T21:30:00.461Z,52.87
2022-12-08T21:35:03.691Z,53.14
2022-12-08T21:40:08.096Z,53.86
2022-12-08T21:45:16.900Z,54.38
2022-12-08T21:50:22.184Z,54.69
2022-12-08T21:55:25.408Z,55.40
2022-12-08T22:00:28.773Z,55.43
2022-12-08T22:05:32.794Z,54.84
2022-12-08T22:10:36.014Z,54.18
2022-12-08T22:15:39.280Z,54.85
2022-12-08T22:20:44.091Z,55.33
2022-12-08T22:25:58.392Z,54.85
2022-12-08T22:31:01.511Z,54.72
2022-12-08T22:36:10.743Z,55.82
2022-12-08T22:41:14.775Z,55.05
2022-12-08T22:46:24.454Z,56.49
2022-12-08T22:51:27.792Z,55.55
2022-12-08T22:56:31.109Z,56.50
2022-12-08T23:01:35.024Z,53.97
2022-12-08T23:06:38.213Z,54.58
2022-12-08T23:11:41.401Z,53.95
2022-12-08T23:16:45.084Z,54.75
2022-12-08T23:21:48.321Z,53.21
2022-12-08T23:26:51.492Z,57.11
2022-12-08T23:31:54.713Z,56.18
2022-12-08T23:36:58.089Z,56.36
2022-12-08T23:42:01.486Z,54.67
2022-12-08T23:47:04.889Z,55.94
2022-12-08T23:52:08.266Z,56.42
2022-12-08T23:57:11.678Z,57.69
